Sequel — WDB9234 — position and weather

sailwx.info

Track history (hours):
 
Tides and Currents Weather Stations Pressure Air Temp Water Temp Dewpoint Dewpoint Depression Visibility Wind Speed Wind Dir Waves Ship Positions

Sequel

Owner: Cannon, Jeffrey D, Ventura,, CA. More information available from US FCC via Universal Licensing System and Coast Guard Vessel Documentation Center.

Last reported at 2015-Mar-29 19:30 UTC. Time now 2015-Mar-30 14:11 UTC.
Position N 37°52' W 122°28'.

Length 14 m.

Type: Pleasure craft. MMSI: 366972180.

Date/timePositionNaut miles runAvg speedWind from/ knotsBaromVisibWave heightAir tempDewpointWater temp
2015-Mar-29 19:30N 37°52' W 122°28'2 1.9
2015-Mar-29 18:33N 37°51' W 122°28'3 3.0
2015-Mar-29 17:32N 37°53' W 122°27'2 2.1
2015-Mar-29 16:33N 37°55' W 122°28'2 1.5
2015-Mar-29 15:22N 37°53' W 122°27'  
2015-Mar-22 18:33N 37°52' W 122°28'5 5.1
2015-Mar-22 17:30N 37°49' W 122°33'2 2.0
2015-Mar-22 16:31N 37°48' W 122°35'6 5.7
2015-Mar-22 15:33N 37°49' W 122°28'  
Track history (hours):
 
Tides and Currents Weather Stations Pressure Air Temp Water Temp Dewpoint Dewpoint Depression Visibility Wind Speed Wind Dir Waves Ship Positions

Sequel

Owner: Cannon, Jeffrey D, Ventura,, CA. More information available from US FCC via Universal Licensing System and Coast Guard Vessel Documentation Center.

Last reported at 2015-Mar-29 19:30 UTC. Time now 2015-Mar-30 14:11 UTC.
Position N 37°52' W 122°28'.

Length 14 m.

Type: Pleasure craft. MMSI: 366972180.

Date/timePositionNaut miles runAvg speedWind from/ knotsBaromVisibWave heightAir tempDewpointWater temp
2015-Mar-29 19:30N 37°52' W 122°28'2 1.9
2015-Mar-29 18:33N 37°51' W 122°28'3 3.0
2015-Mar-29 17:32N 37°53' W 122°27'2 2.1
2015-Mar-29 16:33N 37°55' W 122°28'2 1.5
2015-Mar-29 15:22N 37°53' W 122°27'  
2015-Mar-22 18:33N 37°52' W 122°28'5 5.1
2015-Mar-22 17:30N 37°49' W 122°33'2 2.0
2015-Mar-22 16:31N 37°48' W 122°35'6 5.7
2015-Mar-22 15:33N 37°49' W 122°28'  

Dump ship's entire track history